Time;durP1;ratioP1;P1;durP2;ratioP2;P2;SDS_P1;SDS_P2;PMS_P1;PMS_P2;Temp;Humidity;BMP_temperature;BMP_pressure;BME280_temperature;BME280_humidity;BME280_pressure;Samples;Min_cycle;Max_cycle;Signal;HPM_P1;HPM_P2
2023/03/12 00:00:32;;;;;;;;;;;3.30;76.20;;;;;;5099158;27;20470;-76
2023/03/12 00:02:59;;;;;;;;;;;3.20;76.20;;;;;;5098595;28;19949;-75
2023/03/12 00:05:25;;;;;;;;;;;3.20;76.30;;;;;;5096677;28;19928;-76
2023/03/12 00:07:52;;;;;;;;;;;3.20;76.40;;;;;;5095960;28;19938;-75
2023/03/12 00:10:19;;;;;;;;;;;3.20;76.40;;;;;;5099239;28;19992;-75
2023/03/12 00:12:45;;;;;;;;;;;3.10;76.50;;;;;;5094081;28;19928;-76
2023/03/12 00:15:12;;;;;;;;;;;3.10;76.50;;;;;;5101019;28;19927;-75
2023/03/12 00:17:40;;;;;;;;;;;3.10;76.60;;;;;;5094087;28;20368;-75
2023/03/12 00:20:06;;;;;;;;;;;3.10;76.60;;;;;;5103297;28;19928;-76
2023/03/12 00:22:33;;;;;;;;;;;3.10;76.70;;;;;;5100071;28;19934;-75
2023/03/12 00:25:00;;;;;;;;;;;3.00;76.70;;;;;;5097009;28;19927;-76
2023/03/12 00:27:27;;;;;;;;;;;3.00;76.80;;;;;;5100451;28;19928;-75
2023/03/12 00:29:53;;;;;;;;;;;3.00;76.90;;;;;;5100867;28;19996;-76
2023/03/12 00:32:20;;;;;;;;;;;3.00;77.00;;;;;;5100602;28;19973;-75
2023/03/12 00:34:51;;;;;;;;;;;3.00;77.10;;;;;;5103769;28;20698;-75
2023/03/12 00:37:18;;;;;;;;;;;2.90;77.10;;;;;;5099931;28;19927;-76
2023/03/12 00:39:44;;;;;;;;;;;2.90;77.20;;;;;;5100388;28;20385;-76
2023/03/12 00:42:11;;;;;;;;;;;3.00;77.30;;;;;;5096823;28;19932;-75
2023/03/12 00:44:37;;;;;;;;;;;3.00;77.40;;;;;;5098590;28;19981;-75
2023/03/12 00:47:04;;;;;;;;;;;2.90;77.50;;;;;;5102632;28;20581;-75
2023/03/12 00:49:31;;;;;;;;;;;2.90;77.40;;;;;;5103021;28;19931;-76
2023/03/12 00:51:58;;;;;;;;;;;2.90;77.50;;;;;;5099084;28;19932;-76
2023/03/12 00:54:25;;;;;;;;;;;2.90;77.60;;;;;;5099701;28;19928;-76
2023/03/12 00:56:51;;;;;;;;;;;2.90;77.70;;;;;;5095653;28;20443;-75
2023/03/12 00:59:18;;;;;;;;;;;2.90;77.70;;;;;;5097948;28;19927;-75
2023/03/12 01:01:45;;;;;;;;;;;2.80;77.70;;;;;;5092890;28;19939;-75
2023/03/12 01:04:12;;;;;;;;;;;2.80;77.70;;;;;;5094311;28;20010;-75
2023/03/12 01:06:38;;;;;;;;;;;2.80;77.80;;;;;;5102079;28;19927;-75
2023/03/12 01:09:07;;;;;;;;;;;2.80;77.90;;;;;;5103565;28;20056;-75
2023/03/12 01:11:34;;;;;;;;;;;2.80;78.00;;;;;;5100660;28;20022;-75
2023/03/12 01:14:01;;;;;;;;;;;2.80;78.00;;;;;;5104057;28;19931;-75
2023/03/12 01:16:29;;;;;;;;;;;2.70;78.10;;;;;;5097202;27;19951;-75
2023/03/12 01:18:55;;;;;;;;;;;2.70;78.10;;;;;;5091351;28;19932;-76
2023/03/12 01:21:22;;;;;;;;;;;2.70;78.10;;;;;;5089645;28;19981;-76
2023/03/12 01:23:48;;;;;;;;;;;2.70;78.20;;;;;;5090272;28;19936;-75
2023/03/12 01:26:16;;;;;;;;;;;2.70;78.30;;;;;;5092584;28;19939;-76
2023/03/12 01:28:43;;;;;;;;;;;2.60;78.30;;;;;;5097878;28;19935;-76
2023/03/12 01:31:10;;;;;;;;;;;2.70;78.40;;;;;;5094478;28;19928;-75
2023/03/12 01:33:36;;;;;;;;;;;2.60;78.40;;;;;;5094462;28;19932;-75
2023/03/12 01:36:03;;;;;;;;;;;2.70;78.50;;;;;;5089652;28;19935;-76
2023/03/12 01:38:30;;;;;;;;;;;2.60;78.50;;;;;;5089050;28;19932;-76
2023/03/12 01:40:56;;;;;;;;;;;2.60;78.60;;;;;;5092174;28;19927;-76
2023/03/12 01:43:29;;;;;;;;;;;2.60;79.40;;;;;;5094742;28;20455;-75
2023/03/12 01:46:02;;;;;;;;;;;2.60;78.80;;;;;;5093990;28;19980;-76
2023/03/12 01:48:30;;;;;;;;;;;2.60;78.80;;;;;;5096088;28;20028;-76
2023/03/12 01:50:56;;;;;;;;;;;2.60;78.90;;;;;;5096863;28;19924;-76
2023/03/12 01:53:23;;;;;;;;;;;2.50;78.90;;;;;;5100468;27;19928;-75
2023/03/12 01:55:50;;;;;;;;;;;2.50;79.00;;;;;;5093071;28;19932;-75
2023/03/12 01:58:17;;;;;;;;;;;2.50;79.10;;;;;;5094622;27;19936;-76
2023/03/12 02:00:45;;;;;;;;;;;2.50;79.10;;;;;;5094648;27;19932;-76
2023/03/12 02:03:12;;;;;;;;;;;2.50;79.20;;;;;;5096658;27;19928;-75
2023/03/12 02:05:45;;;;;;;;;;;2.40;79.30;;;;;;5097071;28;22414;-75
2023/03/12 02:08:12;;;;;;;;;;;2.50;79.40;;;;;;5095393;28;19934;-74
2023/03/12 02:10:38;;;;;;;;;;;2.50;79.40;;;;;;5097221;28;19981;-75
2023/03/12 02:13:05;;;;;;;;;;;2.50;79.50;;;;;;5101652;28;19932;-75
2023/03/12 02:15:32;;;;;;;;;;;2.40;79.40;;;;;;5098845;27;20000;-76
2023/03/12 02:18:02;;;;;;;;;;;2.40;79.50;;;;;;5098569;28;19935;-76
2023/03/12 02:20:34;;;;;;;;;;;2.40;79.50;;;;;;5093564;28;19939;-75
2023/03/12 02:23:04;;;;;;;;;;;2.40;79.60;;;;;;5093906;28;19928;-75
2023/03/12 02:25:36;;;;;;;;;;;2.40;79.70;;;;;;5097591;28;19973;-75
2023/03/12 02:28:04;;;;;;;;;;;2.40;79.70;;;;;;5092483;27;19928;-75
2023/03/12 02:30:31;;;;;;;;;;;2.30;79.60;;;;;;5099415;28;20359;-74
2023/03/12 02:32:59;;;;;;;;;;;2.30;79.70;;;;;;5093442;28;19928;-75
2023/03/12 02:35:26;;;;;;;;;;;2.30;79.80;;;;;;5096051;28;20427;-75
2023/03/12 02:37:53;;;;;;;;;;;2.30;79.80;;;;;;5097342;28;19935;-74
2023/03/12 02:40:22;;;;;;;;;;;2.30;79.80;;;;;;5098792;27;19936;-76
2023/03/12 02:42:50;;;;;;;;;;;2.30;79.90;;;;;;5095820;28;19928;-75
2023/03/12 02:45:17;;;;;;;;;;;2.30;80.00;;;;;;5099835;27;20447;-76
2023/03/12 02:47:44;;;;;;;;;;;2.30;80.00;;;;;;5094469;28;19981;-75
2023/03/12 02:50:11;;;;;;;;;;;2.20;80.00;;;;;;5095812;27;20076;-75
2023/03/12 02:52:37;;;;;;;;;;;2.20;80.10;;;;;;5100451;28;19932;-75
2023/03/12 02:55:04;;;;;;;;;;;2.20;80.10;;;;;;5096976;27;20046;-75
2023/03/12 02:57:31;;;;;;;;;;;2.20;80.10;;;;;;5098971;28;19964;-76
2023/03/12 02:59:58;;;;;;;;;;;2.20;80.20;;;;;;5095583;28;20005;-75
2023/03/12 03:02:25;;;;;;;;;;;2.20;80.30;;;;;;5094500;28;20286;-75
2023/03/12 03:04:52;;;;;;;;;;;2.20;80.30;;;;;;5099839;28;20048;-75
2023/03/12 03:07:18;;;;;;;;;;;2.20;81.00;;;;;;5098125;27;19935;-75
2023/03/12 03:09:45;;;;;;;;;;;2.20;80.40;;;;;;5101001;27;19932;-74
2023/03/12 03:12:11;;;;;;;;;;;2.20;80.50;;;;;;5098344;28;19949;-75
2023/03/12 03:14:38;;;;;;;;;;;2.20;80.50;;;;;;5100767;28;19934;-75
2023/03/12 03:17:06;;;;;;;;;;;2.20;80.50;;;;;;5100760;28;19958;-75
2023/03/12 03:19:32;;;;;;;;;;;2.20;80.60;;;;;;5094483;28;19928;-75
2023/03/12 03:21:59;;;;;;;;;;;2.20;80.70;;;;;;5094046;28;20409;-76
2023/03/12 03:24:25;;;;;;;;;;;2.20;80.70;;;;;;5094870;27;19932;-74
2023/03/12 03:26:52;;;;;;;;;;;2.10;80.70;;;;;;5100234;28;20020;-74
2023/03/12 03:29:19;;;;;;;;;;;2.20;80.80;;;;;;5099186;28;19934;-75
2023/03/12 03:31:46;;;;;;;;;;;2.20;80.90;;;;;;5092148;28;20331;-74
2023/03/12 03:34:14;;;;;;;;;;;2.10;80.90;;;;;;5095881;28;19932;-74
2023/03/12 03:36:40;;;;;;;;;;;2.10;80.90;;;;;;5096928;28;19931;-74
2023/03/12 03:39:07;;;;;;;;;;;2.20;81.10;;;;;;5102560;28;20528;-74
2023/03/12 03:41:33;;;;;;;;;;;2.10;81.00;;;;;;5105614;27;19932;-74
2023/03/12 03:44:00;;;;;;;;;;;2.10;81.10;;;;;;5101814;27;19935;-75
2023/03/12 03:46:27;;;;;;;;;;;2.10;81.10;;;;;;5094392;27;19936;-76
2023/03/12 03:48:53;;;;;;;;;;;2.10;81.20;;;;;;5102416;27;19928;-75
2023/03/12 03:51:21;;;;;;;;;;;2.20;81.40;;;;;;5094931;28;20344;-75
2023/03/12 03:53:47;;;;;;;;;;;2.10;81.30;;;;;;5100309;28;19949;-75
2023/03/12 03:56:15;;;;;;;;;;;2.10;81.40;;;;;;5097865;28;20638;-75
2023/03/12 03:58:41;;;;;;;;;;;2.10;81.30;;;;;;5093593;27;19962;-75
2023/03/12 04:01:08;;;;;;;;;;;2.10;81.40;;;;;;5090544;27;19931;-74
2023/03/12 04:03:35;;;;;;;;;;;2.10;81.50;;;;;;5093438;28;19931;-75
2023/03/12 04:06:03;;;;;;;;;;;2.10;81.50;;;;;;5099130;28;20361;-76
2023/03/12 04:08:31;;;;;;;;;;;2.10;81.50;;;;;;5099844;27;19928;-75
2023/03/12 04:10:58;;;;;;;;;;;2.10;81.50;;;;;;5092151;28;19935;-75
2023/03/12 04:13:24;;;;;;;;;;;2.10;81.60;;;;;;5098449;28;19931;-74
2023/03/12 04:15:52;;;;;;;;;;;2.10;81.60;;;;;;5096541;28;19954;-74
2023/03/12 04:18:18;;;;;;;;;;;2.10;81.60;;;;;;5100546;28;19935;-74
2023/03/12 04:20:45;;;;;;;;;;;2.10;81.70;;;;;;5095395;28;20367;-75
2023/03/12 04:23:12;;;;;;;;;;;2.10;81.70;;;;;;5089582;28;19928;-76
2023/03/12 04:25:40;;;;;;;;;;;2.10;81.70;;;;;;5092102;28;20606;-75
2023/03/12 04:28:06;;;;;;;;;;;2.10;81.80;;;;;;5096541;28;20317;-75
2023/03/12 04:30:33;;;;;;;;;;;2.10;81.80;;;;;;5092911;28;20347;-74
2023/03/12 04:32:59;;;;;;;;;;;2.10;81.80;;;;;;5094276;28;20643;-74
2023/03/12 04:35:26;;;;;;;;;;;2.10;81.90;;;;;;5101757;28;19931;-76
2023/03/12 04:37:53;;;;;;;;;;;2.10;81.90;;;;;;5103623;28;19993;-74
2023/03/12 04:40:20;;;;;;;;;;;2.10;81.90;;;;;;5099664;28;19931;-74
2023/03/12 04:42:48;;;;;;;;;;;2.10;82.00;;;;;;5101026;27;19954;-76
2023/03/12 04:45:14;;;;;;;;;;;2.10;82.00;;;;;;5089474;28;19954;-75
2023/03/12 04:47:41;;;;;;;;;;;2.10;82.00;;;;;;5091899;28;19934;-76
2023/03/12 04:50:08;;;;;;;;;;;2.10;82.80;;;;;;5090467;28;19928;-76
2023/03/12 04:52:34;;;;;;;;;;;2.10;82.10;;;;;;5098247;28;19927;-76
2023/03/12 04:55:01;;;;;;;;;;;2.10;82.10;;;;;;5093336;28;19936;-76
2023/03/12 04:57:28;;;;;;;;;;;2.10;82.10;;;;;;5092375;28;19931;-76
2023/03/12 04:59:56;;;;;;;;;;;2.10;82.10;;;;;;5102719;28;19928;-76
2023/03/12 05:02:22;;;;;;;;;;;2.10;82.20;;;;;;5098541;28;19981;-74
2023/03/12 05:04:49;;;;;;;;;;;2.10;82.20;;;;;;5092702;28;19928;-75
2023/03/12 05:07:15;;;;;;;;;;;2.10;82.30;;;;;;5092782;28;19932;-75
2023/03/12 05:09:42;;;;;;;;;;;2.10;82.30;;;;;;5093992;28;20614;-74
2023/03/12 05:12:09;;;;;;;;;;;2.10;82.30;;;;;;5097167;28;19936;-75
2023/03/12 05:14:38;;;;;;;;;;;2.10;82.40;;;;;;5099046;28;19978;-77
2023/03/12 05:17:06;;;;;;;;;;;2.10;82.50;;;;;;5098073;28;19936;-76
2023/03/12 05:19:32;;;;;;;;;;;2.10;82.50;;;;;;5101173;28;19932;-76
2023/03/12 05:21:59;;;;;;;;;;;2.10;82.60;;;;;;5101890;28;19928;-76
2023/03/12 05:24:26;;;;;;;;;;;2.10;82.70;;;;;;5094320;28;19928;-77
2023/03/12 05:26:52;;;;;;;;;;;2.10;82.70;;;;;;5100246;28;19928;-77
2023/03/12 05:29:19;;;;;;;;;;;2.10;82.70;;;;;;5098091;28;19931;-76
2023/03/12 05:31:45;;;;;;;;;;;2.10;82.80;;;;;;5097978;28;20077;-76
2023/03/12 05:34:13;;;;;;;;;;;2.10;82.90;;;;;;5099777;27;20440;-77
2023/03/12 05:36:40;;;;;;;;;;;2.10;82.90;;;;;;5096992;27;19928;-76
2023/03/12 05:39:07;;;;;;;;;;;2.20;83.10;;;;;;5101328;27;19981;-76
2023/03/12 05:41:33;;;;;;;;;;;2.10;83.20;;;;;;5103550;28;20541;-75
2023/03/12 05:44:00;;;;;;;;;;;2.10;83.20;;;;;;5102599;27;19935;-76
2023/03/12 05:46:27;;;;;;;;;;;2.10;83.30;;;;;;5086242;27;19935;-75
2023/03/12 05:48:53;;;;;;;;;;;2.20;83.40;;;;;;5077926;28;19962;-73
2023/03/12 05:51:21;;;;;;;;;;;2.20;83.50;;;;;;5075843;28;19928;-75
2023/03/12 05:53:48;;;;;;;;;;;2.20;83.60;;;;;;5079389;28;19936;-75
2023/03/12 05:56:15;;;;;;;;;;;2.10;83.60;;;;;;5078662;28;19928;-76
2023/03/12 05:58:42;;;;;;;;;;;2.20;83.70;;;;;;5079375;28;19943;-75
2023/03/12 06:01:13;;;;;;;;;;;2.20;83.70;;;;;;5083210;28;20021;-75
2023/03/12 06:03:41;;;;;;;;;;;2.10;83.70;;;;;;5095546;27;19973;-75
2023/03/12 06:06:08;;;;;;;;;;;2.20;83.80;;;;;;5100580;28;20469;-75
2023/03/12 06:08:36;;;;;;;;;;;2.20;83.80;;;;;;5096406;28;19985;-74
2023/03/12 06:11:02;;;;;;;;;;;2.20;83.90;;;;;;5099463;28;19928;-75
2023/03/12 06:13:29;;;;;;;;;;;2.20;84.00;;;;;;5098117;28;19931;-75
2023/03/12 06:16:01;;;;;;;;;;;2.20;84.00;;;;;;5096848;27;19931;-76
2023/03/12 06:18:27;;;;;;;;;;;2.20;84.10;;;;;;5102338;28;19935;-75
2023/03/12 06:20:54;;;;;;;;;;;2.20;84.10;;;;;;5094895;27;19945;-75
2023/03/12 06:23:20;;;;;;;;;;;2.20;84.20;;;;;;5093617;28;19928;-75
2023/03/12 06:25:48;;;;;;;;;;;2.20;84.30;;;;;;5097334;27;19932;-75
2023/03/12 06:28:14;;;;;;;;;;;2.20;84.30;;;;;;5096354;28;19932;-75
2023/03/12 06:30:41;;;;;;;;;;;2.20;84.40;;;;;;5094204;27;19932;-74
2023/03/12 06:33:07;;;;;;;;;;;2.20;84.50;;;;;;5095086;28;19962;-75
2023/03/12 06:35:34;;;;;;;;;;;2.20;84.60;;;;;;5092606;28;19936;-76
2023/03/12 06:38:01;;;;;;;;;;;2.20;84.60;;;;;;5096777;27;19928;-75
2023/03/12 06:40:27;;;;;;;;;;;2.20;84.70;;;;;;5092969;28;19932;-75
2023/03/12 06:42:55;;;;;;;;;;;2.20;84.80;;;;;;5097255;28;20241;-75
2023/03/12 06:45:22;;;;;;;;;;;2.20;84.80;;;;;;5095519;28;20030;-75
2023/03/12 06:47:48;;;;;;;;;;;2.20;84.90;;;;;;5085917;28;19932;-74
2023/03/12 06:50:15;;;;;;;;;;;2.20;84.90;;;;;;5094502;28;20282;-75
2023/03/12 06:52:41;;;;;;;;;;;2.20;84.90;;;;;;5092615;28;19935;-74
2023/03/12 06:55:08;;;;;;;;;;;2.20;85.00;;;;;;5094016;28;19932;-75
2023/03/12 06:57:35;;;;;;;;;;;2.20;85.00;;;;;;5090544;28;19935;-75
2023/03/12 07:00:03;;;;;;;;;;;2.30;85.10;;;;;;5095328;28;19928;-74
2023/03/12 07:02:30;;;;;;;;;;;2.20;85.10;;;;;;5093356;28;20483;-75
2023/03/12 07:04:57;;;;;;;;;;;2.30;85.20;;;;;;5092372;27;19928;-75
2023/03/12 07:07:23;;;;;;;;;;;2.30;85.20;;;;;;5094857;27;19939;-75
2023/03/12 07:09:50;;;;;;;;;;;2.30;85.20;;;;;;5092271;28;20469;-76
2023/03/12 07:12:16;;;;;;;;;;;2.30;85.20;;;;;;5091581;28;20296;-75
2023/03/12 07:14:43;;;;;;;;;;;2.30;85.20;;;;;;5096848;28;19928;-75
2023/03/12 07:17:11;;;;;;;;;;;2.30;85.30;;;;;;5091781;28;19932;-75
2023/03/12 07:19:37;;;;;;;;;;;2.30;85.20;;;;;;5099783;28;19931;-75
2023/03/12 07:22:04;;;;;;;;;;;2.30;85.30;;;;;;5093321;28;19973;-74
2023/03/12 07:24:30;;;;;;;;;;;2.30;85.30;;;;;;5094377;28;19936;-76
2023/03/12 07:26:57;;;;;;;;;;;2.30;85.20;;;;;;5098729;28;19928;-75
2023/03/12 07:29:23;;;;;;;;;;;2.30;85.20;;;;;;5101425;28;19927;-75
2023/03/12 07:31:50;;;;;;;;;;;2.30;85.20;;;;;;5093978;27;19980;-75
2023/03/12 07:34:18;;;;;;;;;;;2.30;85.20;;;;;;5100923;27;19934;-75
2023/03/12 07:36:44;;;;;;;;;;;2.30;85.20;;;;;;5096447;28;19961;-74
2023/03/12 07:39:11;;;;;;;;;;;2.30;85.20;;;;;;5098600;28;19950;-76
2023/03/12 07:41:37;;;;;;;;;;;2.30;85.20;;;;;;5099631;28;20655;-75
2023/03/12 07:44:04;;;;;;;;;;;2.30;85.20;;;;;;5090518;28;19939;-76
2023/03/12 07:46:31;;;;;;;;;;;2.40;86.10;;;;;;5094120;27;19928;-75
2023/03/12 07:48:57;;;;;;;;;;;2.40;85.30;;;;;;5094159;28;19928;-75
2023/03/12 07:51:25;;;;;;;;;;;2.40;85.50;;;;;;5098031;28;19934;-75
2023/03/12 07:53:52;;;;;;;;;;;2.40;85.50;;;;;;5099806;28;19935;-74
2023/03/12 07:56:18;;;;;;;;;;;2.40;85.50;;;;;;5098327;28;19928;-74
2023/03/12 07:58:45;;;;;;;;;;;2.40;85.50;;;;;;5098128;28;20393;-75
2023/03/12 08:01:11;;;;;;;;;;;2.40;85.60;;;;;;5096068;28;20001;-73
2023/03/12 08:03:38;;;;;;;;;;;2.40;85.70;;;;;;5099300;27;20007;-73
2023/03/12 08:06:05;;;;;;;;;;;2.40;85.80;;;;;;5098050;27;20019;-73
2023/03/12 08:08:33;;;;;;;;;;;2.40;85.80;;;;;;5088077;28;19932;-73
2023/03/12 08:11:00;;;;;;;;;;;2.40;86.00;;;;;;5093145;28;20457;-74
2023/03/12 08:13:27;;;;;;;;;;;2.40;86.10;;;;;;5093370;28;20388;-74
2023/03/12 08:15:53;;;;;;;;;;;2.40;86.40;;;;;;5088184;28;19949;-74
2023/03/12 08:18:20;;;;;;;;;;;2.50;86.50;;;;;;5091316;28;19925;-73
2023/03/12 08:20:49;;;;;;;;;;;2.40;86.60;;;;;;5087628;28;19924;-73
2023/03/12 08:23:16;;;;;;;;;;;2.50;86.70;;;;;;5088100;28;19935;-74
2023/03/12 08:25:45;;;;;;;;;;;2.50;86.80;;;;;;5093680;28;19932;-74
2023/03/12 08:28:12;;;;;;;;;;;2.50;87.10;;;;;;5092870;28;20765;-72
2023/03/12 08:30:39;;;;;;;;;;;2.50;87.20;;;;;;5091782;27;19935;-72
2023/03/12 08:33:05;;;;;;;;;;;2.50;87.40;;;;;;5094345;28;19939;-73
2023/03/12 08:35:32;;;;;;;;;;;2.50;87.60;;;;;;5092787;28;19928;-71
2023/03/12 08:37:59;;;;;;;;;;;2.50;87.70;;;;;;5095755;28;19928;-72
2023/03/12 08:40:26;;;;;;;;;;;2.60;87.90;;;;;;5086537;28;19928;-73
2023/03/12 08:42:54;;;;;;;;;;;2.60;87.90;;;;;;5089407;28;20047;-75
2023/03/12 08:45:21;;;;;;;;;;;2.60;87.90;;;;;;5092151;27;20507;-74
2023/03/12 08:47:47;;;;;;;;;;;2.60;87.90;;;;;;5091568;28;19974;-74
2023/03/12 08:50:15;;;;;;;;;;;2.60;87.80;;;;;;5089098;27;19935;-74
2023/03/12 08:52:42;;;;;;;;;;;2.60;88.10;;;;;;5099882;28;19932;-73
2023/03/12 08:55:09;;;;;;;;;;;2.60;88.30;;;;;;5091248;28;19928;-74
2023/03/12 08:57:35;;;;;;;;;;;2.70;88.40;;;;;;5094567;28;19927;-73
2023/03/12 09:00:04;;;;;;;;;;;2.60;88.40;;;;;;5096291;28;20390;-73
2023/03/12 09:02:31;;;;;;;;;;;2.70;88.60;;;;;;5073532;28;19936;-73
2023/03/12 09:04:58;;;;;;;;;;;2.70;88.80;;;;;;5077761;28;19931;-73
2023/03/12 09:07:24;;;;;;;;;;;2.70;88.90;;;;;;5077488;28;20519;-73
2023/03/12 09:09:51;;;;;;;;;;;2.70;89.20;;;;;;5078123;28;20318;-74
2023/03/12 09:12:17;;;;;;;;;;;2.70;89.20;;;;;;5078197;28;19978;-73
2023/03/12 09:14:44;;;;;;;;;;;2.70;89.10;;;;;;5075053;28;19924;-73
2023/03/12 09:17:11;;;;;;;;;;;2.70;89.30;;;;;;5092491;28;20087;-73
2023/03/12 09:19:39;;;;;;;;;;;2.70;89.50;;;;;;5098203;28;19963;-73
2023/03/12 09:22:05;;;;;;;;;;;2.70;89.40;;;;;;5088795;28;19927;-73
2023/03/12 09:24:32;;;;;;;;;;;2.70;89.30;;;;;;5098372;28;19931;-74
2023/03/12 09:26:59;;;;;;;;;;;2.80;89.40;;;;;;5100589;28;20350;-74
2023/03/12 09:29:25;;;;;;;;;;;2.80;89.60;;;;;;5098836;27;19967;-73
2023/03/12 09:31:52;;;;;;;;;;;2.80;89.50;;;;;;5096606;28;19928;-75
2023/03/12 09:34:20;;;;;;;;;;;2.80;89.60;;;;;;5095330;28;19928;-74
2023/03/12 09:36:46;;;;;;;;;;;2.80;89.80;;;;;;5097254;27;19932;-74
2023/03/12 09:39:13;;;;;;;;;;;2.80;89.80;;;;;;5103469;28;19932;-73
2023/03/12 09:41:40;;;;;;;;;;;2.80;89.80;;;;;;5097046;28;19935;-74
2023/03/12 09:44:11;;;;;;;;;;;2.80;90.00;;;;;;5095508;28;19928;-73
2023/03/12 09:46:41;;;;;;;;;;;2.80;90.10;;;;;;5102450;28;19935;-74
2023/03/12 09:49:12;;;;;;;;;;;2.90;90.30;;;;;;5099286;28;19928;-74
2023/03/12 09:51:43;;;;;;;;;;;2.90;90.40;;;;;;5107870;27;20409;-74
2023/03/12 09:54:16;;;;;;;;;;;2.90;90.30;;;;;;5106359;28;20022;-74
2023/03/12 09:56:42;;;;;;;;;;;2.90;90.30;;;;;;5097436;28;19939;-73
2023/03/12 09:59:11;;;;;;;;;;;3.00;90.30;;;;;;5101498;28;19924;-74
2023/03/12 10:01:40;;;;;;;;;;;2.90;90.40;;;;;;5102531;28;19927;-75
2023/03/12 10:04:13;;;;;;;;;;;3.00;90.60;;;;;;5096888;28;19928;-72
2023/03/12 10:06:43;;;;;;;;;;;3.00;90.60;;;;;;5094278;28;19928;-75
2023/03/12 10:09:19;;;;;;;;;;;3.00;90.70;;;;;;5097764;28;20571;-75
2023/03/12 10:11:49;;;;;;;;;;;3.10;90.90;;;;;;5094623;28;19928;-72
2023/03/12 10:14:27;;;;;;;;;;;3.10;91.00;;;;;;5093717;28;19928;-75
2023/03/12 10:16:59;;;;;;;;;;;3.10;91.00;;;;;;5091927;27;20284;-75
2023/03/12 10:19:33;;;;;;;;;;;3.10;91.00;;;;;;5097893;27;19943;-74
2023/03/12 10:22:04;;;;;;;;;;;3.10;91.10;;;;;;5098690;28;20694;-74
2023/03/12 10:24:38;;;;;;;;;;;3.20;91.20;;;;;;5097455;28;20448;-73
2023/03/12 10:27:09;;;;;;;;;;;3.20;91.30;;;;;;5103993;28;19928;-75
2023/03/12 10:29:37;;;;;;;;;;;3.20;91.30;;;;;;5097707;28;20288;-74
2023/03/12 10:32:05;;;;;;;;;;;3.20;91.40;;;;;;5101479;28;20395;-74
2023/03/12 10:34:36;;;;;;;;;;;3.30;91.70;;;;;;5097825;27;19931;-75
2023/03/12 10:37:09;;;;;;;;;;;3.30;91.80;;;;;;5092589;27;20740;-74
2023/03/12 10:39:36;;;;;;;;;;;3.30;91.80;;;;;;5093874;28;19973;-75
2023/03/12 10:42:02;;;;;;;;;;;3.40;92.20;;;;;;5091257;28;20290;-73
2023/03/12 10:44:29;;;;;;;;;;;3.40;92.90;;;;;;5098274;28;19940;-74
2023/03/12 10:46:59;;;;;;;;;;;3.40;92.80;;;;;;5093890;27;19935;-75
2023/03/12 10:49:27;;;;;;;;;;;3.40;92.80;;;;;;5092738;28;20043;-72
2023/03/12 10:51:55;;;;;;;;;;;3.50;92.80;;;;;;5096994;28;19957;-74
2023/03/12 10:54:23;;;;;;;;;;;3.50;93.20;;;;;;5093660;28;19928;-75
2023/03/12 10:56:50;;;;;;;;;;;3.50;93.40;;;;;;5098359;28;19970;-73
2023/03/12 10:59:20;;;;;;;;;;;3.60;94.50;;;;;;5101054;28;20058;-73
2023/03/12 11:01:47;;;;;;;;;;;3.70;94.80;;;;;;5090556;28;19989;-76
2023/03/12 11:04:16;;;;;;;;;;;3.80;95.10;;;;;;5094251;28;19932;-73
2023/03/12 11:06:43;;;;;;;;;;;3.80;95.10;;;;;;5091747;27;19932;-73
2023/03/12 11:09:17;;;;;;;;;;;3.90;95.50;;;;;;5093847;28;20278;-75
2023/03/12 11:11:46;;;;;;;;;;;4.00;96.10;;;;;;5091446;28;19993;-73
2023/03/12 11:14:16;;;;;;;;;;;4.10;96.50;;;;;;5089946;27;21110;-75
2023/03/12 11:16:42;;;;;;;;;;;4.10;96.40;;;;;;5092040;28;19985;-74
2023/03/12 11:19:11;;;;;;;;;;;4.20;96.40;;;;;;5092858;27;19954;-74
2023/03/12 11:21:39;;;;;;;;;;;4.30;96.80;;;;;;5095758;28;19928;-76
2023/03/12 11:24:07;;;;;;;;;;;4.40;97.20;;;;;;5091199;27;19927;-76
2023/03/12 11:26:36;;;;;;;;;;;4.60;97.70;;;;;;5090634;28;20378;-74
2023/03/12 11:29:06;;;;;;;;;;;4.70;98.20;;;;;;5087268;28;20770;-75
2023/03/12 11:31:34;;;;;;;;;;;4.70;98.20;;;;;;5090373;28;19928;-76
2023/03/12 11:34:03;;;;;;;;;;;4.80;98.00;;;;;;5087043;28;19978;-75
2023/03/12 11:36:39;;;;;;;;;;;4.90;97.80;;;;;;5089363;28;19928;-77
2023/03/12 11:39:10;;;;;;;;;;;5.00;97.90;;;;;;5087191;27;19980;-74
2023/03/12 11:41:55;;;;;;;;;;;5.00;97.70;;;;;;5092595;28;19924;-75
2023/03/12 11:44:28;;;;;;;;;;;5.10;97.40;;;;;;5094233;28;19993;-76
2023/03/12 11:47:08;;;;;;;;;;;5.10;97.30;;;;;;5095384;28;20376;-75
2023/03/12 11:49:43;;;;;;;;;;;5.10;97.40;;;;;;5094566;28;19931;-74
2023/03/12 11:52:13;;;;;;;;;;;5.20;97.60;;;;;;5094490;27;19928;-77
2023/03/12 11:55:01;;;;;;;;;;;5.30;98.20;;;;;;5091233;28;20389;-75
2023/03/12 11:57:30;;;;;;;;;;;5.40;98.10;;;;;;5089805;28;19935;-75
2023/03/12 12:00:11;;;;;;;;;;;5.40;98.10;;;;;;5089176;28;19936;-75
2023/03/12 12:02:44;;;;;;;;;;;5.50;98.50;;;;;;5090146;28;19954;-75
2023/03/12 12:05:26;;;;;;;;;;;5.50;98.40;;;;;;5096245;28;19935;-75
2023/03/12 12:08:03;;;;;;;;;;;5.60;98.20;;;;;;5092315;28;19932;-75
2023/03/12 12:10:36;;;;;;;;;;;5.60;98.20;;;;;;5090601;28;19935;-73
2023/03/12 12:13:07;;;;;;;;;;;5.70;98.70;;;;;;5092674;28;20416;-76
2023/03/12 12:15:38;;;;;;;;;;;5.70;98.50;;;;;;5091326;28;19963;-74
2023/03/12 12:18:14;;;;;;;;;;;5.80;98.50;;;;;;5092601;27;20022;-76
2023/03/12 12:20:43;;;;;;;;;;;5.80;99.00;;;;;;5091057;28;19928;-76
2023/03/12 12:23:15;;;;;;;;;;;5.90;99.20;;;;;;5093946;27;19934;-76
2023/03/12 12:25:52;;;;;;;;;;;5.90;99.10;;;;;;5094042;28;19938;-75
2023/03/12 12:28:49;;;;;;;;;;;5.90;98.80;;;;;;5095531;28;20012;-75
2023/03/12 12:31:22;;;;;;;;;;;5.90;98.80;;;;;;5034127;28;20357;-74
2023/03/12 12:33:55;;;;;;;;;;;5.90;99.20;;;;;;5079396;28;19935;-76
2023/03/12 12:36:24;;;;;;;;;;;6.00;99.50;;;;;;5097923;28;19927;-75
2023/03/12 12:38:52;;;;;;;;;;;6.00;99.80;;;;;;5094162;28;20012;-74
2023/03/12 12:41:20;;;;;;;;;;;6.00;99.80;;;;;;5094456;28;19936;-74
2023/03/12 12:43:48;;;;;;;;;;;6.20;99.90;;;;;;5093664;28;19975;-73
2023/03/12 12:46:16;;;;;;;;;;;6.20;99.90;;;;;;5090991;28;20371;-75
2023/03/12 12:48:46;;;;;;;;;;;6.30;99.90;;;;;;5093325;28;19934;-74
2023/03/12 12:51:15;;;;;;;;;;;6.30;99.90;;;;;;5094520;28;19981;-75
2023/03/12 12:53:46;;;;;;;;;;;6.40;99.60;;;;;;5098058;28;20217;-74
2023/03/12 12:56:18;;;;;;;;;;;6.40;99.90;;;;;;5095593;28;19958;-75
2023/03/12 12:59:08;;;;;;;;;;;6.50;99.50;;;;;;5090969;28;19927;-75
2023/03/12 13:01:36;;;;;;;;;;;6.50;99.60;;;;;;5079276;27;19932;-75
2023/03/12 13:04:05;;;;;;;;;;;6.60;99.40;;;;;;5085817;28;19967;-76
2023/03/12 13:06:46;;;;;;;;;;;6.60;99.60;;;;;;5095401;28;19924;-75
2023/03/12 13:09:14;;;;;;;;;;;6.70;99.70;;;;;;5092563;27;19927;-75
2023/03/12 13:11:43;;;;;;;;;;;6.90;99.80;;;;;;5090380;28;19975;-76
2023/03/12 13:14:15;;;;;;;;;;;6.90;99.90;;;;;;5092532;28;19927;-75
2023/03/12 13:16:42;;;;;;;;;;;7.00;99.90;;;;;;5090619;27;19935;-74
2023/03/12 13:19:22;;;;;;;;;;;7.10;99.30;;;;;;5093838;28;20533;-75
2023/03/12 13:21:53;;;;;;;;;;;7.20;98.80;;;;;;5092130;28;20317;-75
2023/03/12 13:24:23;;;;;;;;;;;7.20;98.50;;;;;;5093304;28;19932;-74
2023/03/12 13:26:55;;;;;;;;;;;7.40;98.50;;;;;;5091615;28;19939;-74
2023/03/12 13:29:35;;;;;;;;;;;7.40;98.20;;;;;;5091454;28;19936;-74
2023/03/12 13:32:02;;;;;;;;;;;7.50;98.10;;;;;;5095056;27;20022;-73
2023/03/12 13:34:50;;;;;;;;;;;7.50;98.00;;;;;;5091046;28;20015;-75
2023/03/12 13:37:27;;;;;;;;;;;7.60;97.80;;;;;;5095663;28;19935;-74
2023/03/12 13:39:53;;;;;;;;;;;7.60;97.70;;;;;;5088103;28;19932;-74
2023/03/12 13:42:27;;;;;;;;;;;7.60;97.60;;;;;;5094475;28;19928;-75
2023/03/12 13:44:55;;;;;;;;;;;7.70;97.60;;;;;;5092512;28;19928;-75
2023/03/12 13:47:26;;;;;;;;;;;7.70;97.50;;;;;;5095446;28;19932;-75
2023/03/12 13:49:53;;;;;;;;;;;7.70;97.40;;;;;;5093248;27;19954;-75
2023/03/12 13:52:26;;;;;;;;;;;7.70;97.30;;;;;;5093090;28;20608;-73
2023/03/12 13:55:00;;;;;;;;;;;7.80;97.60;;;;;;5100349;28;19927;-74
2023/03/12 13:57:39;;;;;;;;;;;7.90;97.50;;;;;;5088695;28;19928;-75
2023/03/12 14:00:11;;;;;;;;;;;7.90;97.10;;;;;;5096479;27;19932;-74
2023/03/12 14:02:42;;;;;;;;;;;8.00;96.80;;;;;;5089510;28;20023;-75
2023/03/12 14:05:10;;;;;;;;;;;8.10;96.90;;;;;;5096097;27;21364;-75
2023/03/12 14:07:54;;;;;;;;;;;8.20;96.60;;;;;;5092487;28;19932;-73
2023/03/12 14:10:38;;;;;;;;;;;8.30;96.30;;;;;;5098511;28;19927;-74
2023/03/12 14:13:09;;;;;;;;;;;8.30;96.00;;;;;;5096434;28;20575;-73
2023/03/12 14:15:41;;;;;;;;;;;8.30;95.90;;;;;;5091260;28;19981;-73
2023/03/12 14:18:12;;;;;;;;;;;8.40;95.90;;;;;;5101017;28;20030;-75
2023/03/12 14:20:40;;;;;;;;;;;8.40;95.70;;;;;;5091815;28;19924;-76
2023/03/12 14:23:13;;;;;;;;;;;8.50;95.80;;;;;;5096761;28;20582;-74
2023/03/12 14:25:41;;;;;;;;;;;8.50;95.50;;;;;;5098017;27;20471;-75
2023/03/12 14:28:12;;;;;;;;;;;8.60;95.40;;;;;;5102325;27;19931;-74
2023/03/12 14:30:44;;;;;;;;;;;8.70;95.20;;;;;;5093723;28;19935;-73
2023/03/12 14:33:12;;;;;;;;;;;8.70;95.00;;;;;;5095294;28;19928;-73
2023/03/12 14:35:40;;;;;;;;;;;8.80;95.00;;;;;;5097396;27;19928;-73
2023/03/12 14:38:11;;;;;;;;;;;8.80;94.90;;;;;;5095217;28;19932;-72